sensor_id;sensor_type;location;lat;lon;timestamp;pressure;altitude;pressure_sealevel;temperature;humidity
25084;BME280;13075;55.682;37.564;2022-07-29T00:00:00;99566.78;;;19.44;100.00
25084;BME280;13075;55.682;37.564;2022-07-29T00:02:27;99558.53;;;19.34;100.00
25084;BME280;13075;55.682;37.564;2022-07-29T00:04:53;99566.84;;;19.22;100.00
25084;BME280;13075;55.682;37.564;2022-07-29T00:07:18;99569.59;;;19.27;100.00
25084;BME280;13075;55.682;37.564;2022-07-29T00:09:44;99567.06;;;19.21;100.00
25084;BME280;13075;55.682;37.564;2022-07-29T00:12:10;99568.72;;;19.22;100.00
25084;BME280;13075;55.682;37.564;2022-07-29T00:14:35;99581.13;;;19.18;100.00
25084;BME280;13075;55.682;37.564;2022-07-29T00:17:01;99572.50;;;19.21;100.00
25084;BME280;13075;55.682;37.564;2022-07-29T00:19:27;99569.94;;;19.09;100.00
25084;BME280;13075;55.682;37.564;2022-07-29T00:21:52;99576.75;;;19.12;100.00
25084;BME280;13075;55.682;37.564;2022-07-29T00:24:18;99583.50;;;19.09;100.00
25084;BME280;13075;55.682;37.564;2022-07-29T00:26:43;99571.84;;;19.09;100.00
25084;BME280;13075;55.682;37.564;2022-07-29T00:29:09;99580.22;;;19.07;100.00
25084;BME280;13075;55.682;37.564;2022-07-29T00:31:35;99587.66;;;18.95;100.00
25084;BME280;13075;55.682;37.564;2022-07-29T00:34:00;99576.75;;;18.90;100.00
25084;BME280;13075;55.682;37.564;2022-07-29T00:36:26;99589.00;;;18.71;100.00
25084;BME280;13075;55.682;37.564;2022-07-29T00:38:52;99584.66;;;18.70;100.00
25084;BME280;13075;55.682;37.564;2022-07-29T00:41:18;99589.25;;;18.70;100.00
25084;BME280;13075;55.682;37.564;2022-07-29T00:43:44;99585.97;;;18.67;100.00
25084;BME280;13075;55.682;37.564;2022-07-29T00:46:10;99593.53;;;18.65;100.00
25084;BME280;13075;55.682;37.564;2022-07-29T00:48:36;99597.31;;;18.64;100.00
25084;BME280;13075;55.682;37.564;2022-07-29T00:51:03;99591.63;;;18.66;100.00
25084;BME280;13075;55.682;37.564;2022-07-29T00:53:30;99597.75;;;18.56;100.00
25084;BME280;13075;55.682;37.564;2022-07-29T00:55:56;99599.19;;;18.64;100.00
25084;BME280;13075;55.682;37.564;2022-07-29T00:58:23;99611.69;;;18.65;100.00
25084;BME280;13075;55.682;37.564;2022-07-29T01:03:24;99609.66;;;18.55;100.00
25084;BME280;13075;55.682;37.564;2022-07-29T01:05:50;99599.47;;;18.62;100.00
25084;BME280;13075;55.682;37.564;2022-07-29T01:08:17;99605.56;;;18.53;100.00
25084;BME280;13075;55.682;37.564;2022-07-29T01:10:44;99616.81;;;18.45;100.00
25084;BME280;13075;55.682;37.564;2022-07-29T01:13:11;99616.53;;;18.46;100.00
25084;BME280;13075;55.682;37.564;2022-07-29T01:15:43;99613.59;;;18.48;100.00
25084;BME280;13075;55.682;37.564;2022-07-29T01:18:18;99615.56;;;18.36;100.00
25084;BME280;13075;55.682;37.564;2022-07-29T01:24:14;99617.72;;;18.34;100.00
25084;BME280;13075;55.682;37.564;2022-07-29T01:26:45;99614.75;;;18.35;100.00
25084;BME280;13075;55.682;37.564;2022-07-29T01:29:25;99619.44;;;18.40;100.00
25084;BME280;13075;55.682;37.564;2022-07-29T01:32:05;99617.72;;;18.34;100.00
25084;BME280;13075;55.682;37.564;2022-07-29T01:37:47;99622.06;;;18.18;100.00
25084;BME280;13075;55.682;37.564;2022-07-29T01:40:22;99616.81;;;18.28;100.00
25084;BME280;13075;55.682;37.564;2022-07-29T01:42:52;99615.75;;;18.29;100.00
25084;BME280;13075;55.682;37.564;2022-07-29T01:45:21;99625.75;;;18.29;100.00
25084;BME280;13075;55.682;37.564;2022-07-29T01:48:19;99620.09;;;18.30;100.00
25084;BME280;13075;55.682;37.564;2022-07-29T01:51:02;99620.00;;;18.25;100.00
25084;BME280;13075;55.682;37.564;2022-07-29T01:53:55;99622.72;;;18.25;100.00
25084;BME280;13075;55.682;37.564;2022-07-29T01:56:25;99620.94;;;18.14;100.00
25084;BME280;13075;55.682;37.564;2022-07-29T01:58:55;99615.84;;;18.18;100.00
25084;BME280;13075;55.682;37.564;2022-07-29T02:01:23;99615.25;;;18.16;100.00
25084;BME280;13075;55.682;37.564;2022-07-29T02:03:50;99617.97;;;18.16;100.00
25084;BME280;13075;55.682;37.564;2022-07-29T02:06:21;99623.66;;;18.14;100.00
25084;BME280;13075;55.682;37.564;2022-07-29T02:08:48;99623.38;;;18.16;100.00
25084;BME280;13075;55.682;37.564;2022-07-29T02:11:15;99624.13;;;18.11;100.00
25084;BME280;13075;55.682;37.564;2022-07-29T02:13:42;99632.50;;;18.10;100.00
25084;BME280;13075;55.682;37.564;2022-07-29T02:16:09;99628.16;;;18.09;100.00
25084;BME280;13075;55.682;37.564;2022-07-29T02:18:37;99632.50;;;18.10;100.00
25084;BME280;13075;55.682;37.564;2022-07-29T02:21:04;99634.63;;;18.08;100.00
25084;BME280;13075;55.682;37.564;2022-07-29T02:23:31;99635.53;;;18.13;100.00
25084;BME280;13075;55.682;37.564;2022-07-29T02:25:59;99630.38;;;18.12;100.00
25084;BME280;13075;55.682;37.564;2022-07-29T02:28:29;99639.63;;;18.16;100.00
25084;BME280;13075;55.682;37.564;2022-07-29T02:30:59;99643.66;;;18.13;100.00
25084;BME280;13075;55.682;37.564;2022-07-29T02:33:26;99648.81;;;18.15;100.00
25084;BME280;13075;55.682;37.564;2022-07-29T02:35:54;99647.19;;;18.14;100.00
25084;BME280;13075;55.682;37.564;2022-07-29T02:38:21;99635.63;;;18.18;100.00
25084;BME280;13075;55.682;37.564;2022-07-29T02:41:09;99644.78;;;18.17;100.00
25084;BME280;13075;55.682;37.564;2022-07-29T02:43:37;99642.59;;;18.14;100.00
25084;BME280;13075;55.682;37.564;2022-07-29T02:46:12;99635.19;;;18.10;100.00
25084;BME280;13075;55.682;37.564;2022-07-29T02:48:44;99640.69;;;18.15;100.00
25084;BME280;13075;55.682;37.564;2022-07-29T02:51:26;99639.06;;;18.14;100.00
25084;BME280;13075;55.682;37.564;2022-07-29T02:53:54;99635.06;;;18.16;100.00
25084;BME280;13075;55.682;37.564;2022-07-29T02:56:25;99643.41;;;18.15;100.00
25084;BME280;13075;55.682;37.564;2022-07-29T02:58:58;99637.56;;;18.23;100.00
25084;BME280;13075;55.682;37.564;2022-07-29T03:01:30;99638.75;;;18.27;100.00
25084;BME280;13075;55.682;37.564;2022-07-29T03:04:01;99635.28;;;18.31;100.00
25084;BME280;13075;55.682;37.564;2022-07-29T03:06:28;99638.81;;;18.32;100.00
25084;BME280;13075;55.682;37.564;2022-07-29T03:08:56;99638.56;;;18.33;100.00
25084;BME280;13075;55.682;37.564;2022-07-29T03:11:23;99640.13;;;18.29;100.00
25084;BME280;13075;55.682;37.564;2022-07-29T03:13:50;99639.88;;;18.31;100.00
25084;BME280;13075;55.682;37.564;2022-07-29T03:16:16;99633.06;;;18.45;100.00
25084;BME280;13075;55.682;37.564;2022-07-29T03:18:43;99628.88;;;18.54;100.00
25084;BME280;13075;55.682;37.564;2022-07-29T03:21:09;99632.13;;;18.73;100.00
25084;BME280;13075;55.682;37.564;2022-07-29T03:23:35;99618.06;;;18.97;100.00
25084;BME280;13075;55.682;37.564;2022-07-29T03:26:00;99613.63;;;19.13;100.00
25084;BME280;13075;55.682;37.564;2022-07-29T03:28:26;99620.25;;;19.44;100.00
25084;BME280;13075;55.682;37.564;2022-07-29T03:30:53;99609.44;;;20.07;100.00
25084;BME280;13075;55.682;37.564;2022-07-29T03:33:19;99603.63;;;20.67;100.00
25084;BME280;13075;55.682;37.564;2022-07-29T03:35:44;99596.97;;;21.05;100.00
25084;BME280;13075;55.682;37.564;2022-07-29T03:38:10;99593.91;;;22.19;100.00
25084;BME280;13075;55.682;37.564;2022-07-29T03:40:44;99585.16;;;21.77;100.00
25084;BME280;13075;55.682;37.564;2022-07-29T03:43:12;99593.28;;;21.31;100.00
25084;BME280;13075;55.682;37.564;2022-07-29T03:45:42;99602.19;;;21.17;100.00
25084;BME280;13075;55.682;37.564;2022-07-29T03:48:13;99595.03;;;20.95;100.00
25084;BME280;13075;55.682;37.564;2022-07-29T03:50:39;99597.09;;;20.73;100.00
25084;BME280;13075;55.682;37.564;2022-07-29T03:53:05;99607.34;;;20.56;100.00
25084;BME280;13075;55.682;37.564;2022-07-29T03:55:36;99611.31;;;20.38;100.00
25084;BME280;13075;55.682;37.564;2022-07-29T03:58:03;99617.38;;;20.19;100.00
25084;BME280;13075;55.682;37.564;2022-07-29T04:00:29;99612.19;;;20.12;100.00
25084;BME280;13075;55.682;37.564;2022-07-29T04:02:56;99624.94;;;20.12;100.00
25084;BME280;13075;55.682;37.564;2022-07-29T04:05:22;99622.16;;;20.02;100.00
25084;BME280;13075;55.682;37.564;2022-07-29T04:07:48;99623.50;;;19.99;100.00
25084;BME280;13075;55.682;37.564;2022-07-29T04:10:14;99626.41;;;19.92;100.00
25084;BME280;13075;55.682;37.564;2022-07-29T04:12:44;99630.00;;;19.98;100.00
25084;BME280;13075;55.682;37.564;2022-07-29T04:15:10;99629.13;;;19.92;100.00
25084;BME280;13075;55.682;37.564;2022-07-29T04:17:36;99629.47;;;20.01;100.00
25084;BME280;13075;55.682;37.564;2022-07-29T04:20:02;99629.28;;;20.08;100.00
25084;BME280;13075;55.682;37.564;2022-07-29T04:22:28;99630.09;;;20.13;100.00
25084;BME280;13075;55.682;37.564;2022-07-29T04:24:54;99635.22;;;20.05;100.00
25084;BME280;13075;55.682;37.564;2022-07-29T04:27:19;99626.56;;;20.08;100.00
25084;BME280;13075;55.682;37.564;2022-07-29T04:29:45;99628.91;;;20.26;100.00
25084;BME280;13075;55.682;37.564;2022-07-29T04:32:11;99631.19;;;20.44;100.00
25084;BME280;13075;55.682;37.564;2022-07-29T04:34:36;99630.69;;;20.52;100.00
25084;BME280;13075;55.682;37.564;2022-07-29T04:37:02;99633.66;;;20.45;100.00
25084;BME280;13075;55.682;37.564;2022-07-29T04:39:28;99628.69;;;20.37;100.00
25084;BME280;13075;55.682;37.564;2022-07-29T04:41:53;99633.81;;;20.34;100.00
25084;BME280;13075;55.682;37.564;2022-07-29T04:44:19;99634.97;;;20.38;100.00
25084;BME280;13075;55.682;37.564;2022-07-29T04:46:45;99645.81;;;20.38;100.00
25084;BME280;13075;55.682;37.564;2022-07-29T04:49:10;99641.47;;;20.37;100.00
25084;BME280;13075;55.682;37.564;2022-07-29T04:51:36;99647.13;;;20.30;100.00
25084;BME280;13075;55.682;37.564;2022-07-29T04:54:02;99638.25;;;20.45;100.00
25084;BME280;13075;55.682;37.564;2022-07-29T04:56:27;99639.13;;;20.50;100.00
25084;BME280;13075;55.682;37.564;2022-07-29T04:58:53;99636.38;;;20.45;100.00
25084;BME280;13075;55.682;37.564;2022-07-29T05:01:19;99647.00;;;20.52;100.00
25084;BME280;13075;55.682;37.564;2022-07-29T05:03:44;99644.09;;;20.64;100.00
25084;BME280;13075;55.682;37.564;2022-07-29T05:06:10;99637.84;;;20.68;100.00
25084;BME280;13075;55.682;37.564;2022-07-29T05:08:36;99645.47;;;20.66;100.00
25084;BME280;13075;55.682;37.564;2022-07-29T05:11:02;99639.81;;;20.78;100.00
25084;BME280;13075;55.682;37.564;2022-07-29T05:13:28;99637.97;;;20.88;100.00
25084;BME280;13075;55.682;37.564;2022-07-29T05:15:54;99634.22;;;20.99;100.00
25084;BME280;13075;55.682;37.564;2022-07-29T05:18:20;99642.72;;;21.08;100.00
25084;BME280;13075;55.682;37.564;2022-07-29T05:20:46;99648.19;;;21.13;100.00
25084;BME280;13075;55.682;37.564;2022-07-29T05:23:12;99638.09;;;21.08;100.00
25084;BME280;13075;55.682;37.564;2022-07-29T05:25:40;99644.34;;;21.14;100.00
25084;BME280;13075;55.682;37.564;2022-07-29T05:28:06;99636.22;;;21.19;100.00
25084;BME280;13075;55.682;37.564;2022-07-29T05:30:32;99630.03;;;21.44;100.00
25084;BME280;13075;55.682;37.564;2022-07-29T05:32:57;99635.81;;;21.57;100.00
25084;BME280;13075;55.682;37.564;2022-07-29T05:35:23;99633.63;;;21.59;100.00
25084;BME280;13075;55.682;37.564;2022-07-29T05:37:49;99632.25;;;21.62;100.00
25084;BME280;13075;55.682;37.564;2022-07-29T05:40:14;99633.09;;;21.67;100.00
25084;BME280;13075;55.682;37.564;2022-07-29T05:42:40;99633.06;;;21.57;100.00
25084;BME280;13075;55.682;37.564;2022-07-29T05:45:06;99632.81;;;21.69;100.00
25084;BME280;13075;55.682;37.564;2022-07-29T05:47:31;99628.22;;;22.40;100.00
25084;BME280;13075;55.682;37.564;2022-07-29T05:49:57;99623.56;;;22.46;100.00
25084;BME280;13075;55.682;37.564;2022-07-29T05:52:23;99629.31;;;22.29;100.00
25084;BME280;13075;55.682;37.564;2022-07-29T05:54:49;99630.13;;;22.09;100.00
25084;BME280;13075;55.682;37.564;2022-07-29T05:57:16;99629.06;;;22.10;100.00
25084;BME280;13075;55.682;37.564;2022-07-29T05:59:42;99627.41;;;21.99;100.00
25084;BME280;13075;55.682;37.564;2022-07-29T06:02:07;99626.63;;;22.04;100.00
25084;BME280;13075;55.682;37.564;2022-07-29T06:04:33;99628.53;;;21.98;100.00
25084;BME280;13075;55.682;37.564;2022-07-29T06:06:59;99605.72;;;24.77;100.00
25084;BME280;13075;55.682;37.564;2022-07-29T06:09:25;99614.88;;;24.05;100.00
25084;BME280;13075;55.682;37.564;2022-07-29T06:11:51;99615.19;;;23.65;100.00
25084;BME280;13075;55.682;37.564;2022-07-29T06:14:17;99617.53;;;23.43;100.00
25084;BME280;13075;55.682;37.564;2022-07-29T06:16:43;99621.72;;;23.15;100.00
25084;BME280;13075;55.682;37.564;2022-07-29T06:19:09;99617.63;;;23.18;100.00
25084;BME280;13075;55.682;37.564;2022-07-29T06:21:35;99612.22;;;23.03;100.00
25084;BME280;13075;55.682;37.564;2022-07-29T06:24:00;99617.50;;;22.84;100.00
25084;BME280;13075;55.682;37.564;2022-07-29T06:26:26;99611.09;;;23.14;100.00
25084;BME280;13075;55.682;37.564;2022-07-29T06:28:51;99613.81;;;23.19;100.00
25084;BME280;13075;55.682;37.564;2022-07-29T06:31:17;99605.56;;;23.29;100.00
25084;BME280;13075;55.682;37.564;2022-07-29T06:33:43;99608.09;;;23.64;100.00
25084;BME280;13075;55.682;37.564;2022-07-29T06:36:08;99610.78;;;24.13;100.00
25084;BME280;13075;55.682;37.564;2022-07-29T06:38:34;99598.59;;;25.42;100.00
25084;BME280;13075;55.682;37.564;2022-07-29T06:41:00;99590.16;;;27.36;100.00
25084;BME280;13075;55.682;37.564;2022-07-29T06:43:39;99579.56;;;33.60;56.13
25084;BME280;13075;55.682;37.564;2022-07-29T06:46:09;99571.00;;;37.46;42.50
25084;BME280;13075;55.682;37.564;2022-07-29T06:48:35;99564.16;;;40.60;35.49
25084;BME280;13075;55.682;37.564;2022-07-29T06:51:02;99573.63;;;41.75;32.18
25084;BME280;13075;55.682;37.564;2022-07-29T06:53:29;99569.13;;;45.10;27.70
25084;BME280;13075;55.682;37.564;2022-07-29T06:55:55;99570.16;;;45.98;27.16
25084;BME280;13075;55.682;37.564;2022-07-29T06:58:21;99562.50;;;41.29;32.05
25084;BME280;13075;55.682;37.564;2022-07-29T07:01:05;99579.78;;;39.46;33.98
25084;BME280;13075;55.682;37.564;2022-07-29T07:03:31;99577.09;;;42.00;30.76
25084;BME280;13075;55.682;37.564;2022-07-29T07:05:57;99576.53;;;44.54;27.44
25084;BME280;13075;55.682;37.564;2022-07-29T07:08:23;99575.41;;;46.00;24.96
25084;BME280;13075;55.682;37.564;2022-07-29T07:10:50;99566.38;;;45.06;26.55
25084;BME280;13075;55.682;37.564;2022-07-29T07:13:16;99570.72;;;45.11;26.66
25084;BME280;13075;55.682;37.564;2022-07-29T07:15:45;99577.44;;;45.60;25.51
25084;BME280;13075;55.682;37.564;2022-07-29T07:18:13;99571.13;;;47.08;23.31
25084;BME280;13075;55.682;37.564;2022-07-29T07:20:39;99584.53;;;42.94;27.41
25084;BME280;13075;55.682;37.564;2022-07-29T07:23:04;99568.25;;;46.47;22.46
25084;BME280;13075;55.682;37.564;2022-07-29T07:25:31;99576.13;;;43.65;24.85
25084;BME280;13075;55.682;37.564;2022-07-29T07:27:57;99579.09;;;43.54;24.19
25084;BME280;13075;55.682;37.564;2022-07-29T07:30:22;99571.28;;;41.49;27.01
25084;BME280;13075;55.682;37.564;2022-07-29T07:32:48;99578.94;;;37.18;31.22
25084;BME280;13075;55.682;37.564;2022-07-29T07:35:14;99578.88;;;40.07;28.11
25084;BME280;13075;55.682;37.564;2022-07-29T07:37:40;99578.13;;;42.86;25.13
25084;BME280;13075;55.682;37.564;2022-07-29T07:40:10;99567.84;;;42.00;25.91
25084;BME280;13075;55.682;37.564;2022-07-29T07:42:37;99567.50;;;43.08;24.97
25084;BME280;13075;55.682;37.564;2022-07-29T07:45:03;99572.81;;;41.64;27.09
25084;BME280;13075;55.682;37.564;2022-07-29T07:47:30;99562.34;;;46.58;21.88
25084;BME280;13075;55.682;37.564;2022-07-29T07:49:55;99571.03;;;47.85;21.16
25084;BME280;13075;55.682;37.564;2022-07-29T07:52:21;99578.44;;;49.18;20.35
25084;BME280;13075;55.682;37.564;2022-07-29T07:54:48;99572.47;;;44.28;23.09
25084;BME280;13075;55.682;37.564;2022-07-29T07:57:14;99574.91;;;40.29;26.60
25084;BME280;13075;55.682;37.564;2022-07-29T07:59:40;99582.78;;;46.49;21.50
25084;BME280;13075;55.682;37.564;2022-07-29T08:02:06;99586.16;;;48.83;19.56
25084;BME280;13075;55.682;37.564;2022-07-29T08:04:32;99579.81;;;49.26;19.35
25084;BME280;13075;55.682;37.564;2022-07-29T08:06:58;99583.59;;;51.35;18.49
25084;BME280;13075;55.682;37.564;2022-07-29T08:09:25;99576.25;;;53.34;16.86
25084;BME280;13075;55.682;37.564;2022-07-29T08:11:51;99581.22;;;44.07;23.10
25084;BME280;13075;55.682;37.564;2022-07-29T08:14:18;99587.94;;;39.69;27.34
25084;BME280;13075;55.682;37.564;2022-07-29T08:16:44;99584.06;;;44.60;22.49
25084;BME280;13075;55.682;37.564;2022-07-29T08:19:10;99573.03;;;47.72;20.17
25084;BME280;13075;55.682;37.564;2022-07-29T08:21:35;99564.03;;;46.55;20.88
25084;BME280;13075;55.682;37.564;2022-07-29T08:24:01;99572.16;;;49.01;18.84
25084;BME280;13075;55.682;37.564;2022-07-29T08:26:46;99573.88;;;48.86;18.89
25084;BME280;13075;55.682;37.564;2022-07-29T08:29:12;99576.59;;;51.18;17.59
25084;BME280;13075;55.682;37.564;2022-07-29T08:31:38;99566.63;;;52.18;16.94
25084;BME280;13075;55.682;37.564;2022-07-29T08:34:05;99568.31;;;47.94;17.87
25084;BME280;13075;55.682;37.564;2022-07-29T08:36:31;99559.34;;;43.54;21.57
25084;BME280;13075;55.682;37.564;2022-07-29T08:38:57;99564.47;;;40.19;24.06
25084;BME280;13075;55.682;37.564;2022-07-29T08:41:23;99554.34;;;37.53;27.70
25084;BME280;13075;55.682;37.564;2022-07-29T08:43:49;99552.91;;;35.97;30.11
25084;BME280;13075;55.682;37.564;2022-07-29T08:46:16;99561.63;;;33.85;32.10
25084;BME280;13075;55.682;37.564;2022-07-29T08:48:42;99569.81;;;32.78;34.13
25084;BME280;13075;55.682;37.564;2022-07-29T08:51:13;99569.34;;;31.65;37.79
25084;BME280;13075;55.682;37.564;2022-07-29T08:53:41;99568.75;;;31.10;41.47
25084;BME280;13075;55.682;37.564;2022-07-29T08:56:11;99573.16;;;30.35;45.63
25084;BME280;13075;55.682;37.564;2022-07-29T08:58:37;99571.84;;;30.15;47.13
25084;BME280;13075;55.682;37.564;2022-07-29T09:01:03;99578.72;;;29.67;50.17
25084;BME280;13075;55.682;37.564;2022-07-29T09:03:34;99575.13;;;29.23;56.12
25084;BME280;13075;55.682;37.564;2022-07-29T09:06:01;99572.88;;;29.34;52.86
25084;BME280;13075;55.682;37.564;2022-07-29T09:08:27;99574.50;;;29.52;51.75
25084;BME280;13075;55.682;37.564;2022-07-29T09:10:54;99575.56;;;30.28;48.82
25084;BME280;13075;55.682;37.564;2022-07-29T09:13:21;99572.59;;;30.88;46.51
25084;BME280;13075;55.682;37.564;2022-07-29T09:15:47;99565.69;;;30.73;46.03
25084;BME280;13075;55.682;37.564;2022-07-29T09:18:33;99575.00;;;30.60;48.22
25084;BME280;13075;55.682;37.564;2022-07-29T09:21:00;99572.59;;;29.78;48.37
25084;BME280;13075;55.682;37.564;2022-07-29T09:24:00;99572.22;;;29.71;52.92
25084;BME280;13075;55.682;37.564;2022-07-29T09:26:36;99572.06;;;29.93;52.28
25084;BME280;13075;55.682;37.564;2022-07-29T09:29:11;99579.06;;;29.82;51.49
25084;BME280;13075;55.682;37.564;2022-07-29T09:31:39;99577.25;;;29.60;51.79
25084;BME280;13075;55.682;37.564;2022-07-29T09:34:06;99579.66;;;29.45;53.28
25084;BME280;13075;55.682;37.564;2022-07-29T09:36:48;99587.47;;;30.66;49.14
25084;BME280;13075;55.682;37.564;2022-07-29T09:39:17;99579.28;;;31.37;44.84
25084;BME280;13075;55.682;37.564;2022-07-29T09:41:53;99563.69;;;32.15;42.51
25084;BME280;13075;55.682;37.564;2022-07-29T09:44:20;99571.81;;;31.79;41.92
25084;BME280;13075;55.682;37.564;2022-07-29T09:47:02;99582.84;;;30.41;46.99
25084;BME280;13075;55.682;37.564;2022-07-29T09:49:34;99586.19;;;29.57;48.49
25084;BME280;13075;55.682;37.564;2022-07-29T09:52:18;99587.97;;;28.80;52.20
25084;BME280;13075;55.682;37.564;2022-07-29T09:54:44;99600.91;;;28.49;55.80
25084;BME280;13075;55.682;37.564;2022-07-29T09:57:26;99597.00;;;28.50;58.71
25084;BME280;13075;55.682;37.564;2022-07-29T10:02:40;99587.97;;;28.88;50.18
25084;BME280;13075;55.682;37.564;2022-07-29T10:05:17;99582.25;;;29.24;50.44
25084;BME280;13075;55.682;37.564;2022-07-29T10:07:51;99586.31;;;28.48;51.34
25084;BME280;13075;55.682;37.564;2022-07-29T10:10:29;99588.97;;;27.64;62.90
25084;BME280;13075;55.682;37.564;2022-07-29T10:13:03;99591.78;;;27.37;63.62
25084;BME280;13075;55.682;37.564;2022-07-29T10:15:31;99586.47;;;27.54;64.13
25084;BME280;13075;55.682;37.564;2022-07-29T10:18:04;99580.94;;;27.68;62.93
25084;BME280;13075;55.682;37.564;2022-07-29T10:20:30;99589.81;;;27.87;63.36
25084;BME280;13075;55.682;37.564;2022-07-29T10:22:56;99583.19;;;27.66;64.33
25084;BME280;13075;55.682;37.564;2022-07-29T10:25:22;99586.75;;;27.17;68.62
25084;BME280;13075;55.682;37.564;2022-07-29T10:27:50;99593.41;;;26.89;71.62
25084;BME280;13075;55.682;37.564;2022-07-29T10:30:20;99595.81;;;26.77;69.81
25084;BME280;13075;55.682;37.564;2022-07-29T10:44:14;99593.06;;;26.63;74.42
25084;BME280;13075;55.682;37.564;2022-07-29T10:46:39;99579.91;;;26.46;76.36
25084;BME280;13075;55.682;37.564;2022-07-29T10:49:17;99588.72;;;26.16;78.00
25084;BME280;13075;55.682;37.564;2022-07-29T10:52:19;99587.78;;;26.53;68.38
25084;BME280;13075;55.682;37.564;2022-07-29T10:54:48;99576.25;;;27.19;67.85
25084;BME280;13075;55.682;37.564;2022-07-29T10:57:19;99578.59;;;27.39;63.70
25084;BME280;13075;55.682;37.564;2022-07-29T11:05:07;99588.75;;;27.97;67.60
25084;BME280;13075;55.682;37.564;2022-07-29T11:07:34;99579.81;;;27.91;60.88
25084;BME280;13075;55.682;37.564;2022-07-29T11:22:59;99584.03;;;26.90;71.68
25084;BME280;13075;55.682;37.564;2022-07-29T11:25:25;99584.94;;;26.85;80.31
25084;BME280;13075;55.682;37.564;2022-07-29T11:28:08;99596.81;;;26.67;87.28
25084;BME280;13075;55.682;37.564;2022-07-29T11:30:50;99595.47;;;26.37;78.54
25084;BME280;13075;55.682;37.564;2022-07-29T11:33:31;99594.16;;;26.48;78.43
25084;BME280;13075;55.682;37.564;2022-07-29T11:36:14;99595.63;;;26.14;78.39
25084;BME280;13075;55.682;37.564;2022-07-29T11:38:41;99599.09;;;26.19;79.51
25084;BME280;13075;55.682;37.564;2022-07-29T11:41:27;99601.06;;;26.32;85.92
25084;BME280;13075;55.682;37.564;2022-07-29T11:43:56;99599.19;;;26.87;83.18
25084;BME280;13075;55.682;37.564;2022-07-29T11:46:48;99596.09;;;26.75;78.07
25084;BME280;13075;55.682;37.564;2022-07-29T11:49:25;99608.69;;;26.49;88.66
25084;BME280;13075;55.682;37.564;2022-07-29T11:51:56;99610.47;;;26.26;86.81
25084;BME280;13075;55.682;37.564;2022-07-29T11:54:42;99608.19;;;26.15;86.18
25084;BME280;13075;55.682;37.564;2022-07-29T11:57:09;99601.56;;;26.34;90.11
25084;BME280;13075;55.682;37.564;2022-07-29T11:59:43;99609.44;;;26.22;81.70
25084;BME280;13075;55.682;37.564;2022-07-29T12:02:10;99600.50;;;26.17;86.08
25084;BME280;13075;55.682;37.564;2022-07-29T12:07:15;99602.59;;;25.87;92.66
25084;BME280;13075;55.682;37.564;2022-07-29T12:09:49;99590.72;;;25.60;95.21
25084;BME280;13075;55.682;37.564;2022-07-29T12:12:16;99584.69;;;25.58;100.00
25084;BME280;13075;55.682;37.564;2022-07-29T12:14:43;99596.53;;;25.90;98.04
25084;BME280;13075;55.682;37.564;2022-07-29T12:17:32;99590.78;;;26.24;90.85
25084;BME280;13075;55.682;37.564;2022-07-29T12:20:01;99586.56;;;26.13;93.86
25084;BME280;13075;55.682;37.564;2022-07-29T12:22:39;99589.44;;;26.22;91.20
25084;BME280;13075;55.682;37.564;2022-07-29T12:25:13;99581.75;;;26.51;87.14
25084;BME280;13075;55.682;37.564;2022-07-29T12:27:42;99582.38;;;26.61;84.35
25084;BME280;13075;55.682;37.564;2022-07-29T12:30:16;99580.16;;;26.77;80.28
25084;BME280;13075;55.682;37.564;2022-07-29T12:32:46;99579.25;;;26.82;78.61
25084;BME280;13075;55.682;37.564;2022-07-29T12:35:14;99583.91;;;26.68;79.03
25084;BME280;13075;55.682;37.564;2022-07-29T12:37:42;99587.94;;;26.43;79.34
25084;BME280;13075;55.682;37.564;2022-07-29T12:40:11;99582.31;;;26.21;80.12
25084;BME280;13075;55.682;37.564;2022-07-29T12:42:38;99584.19;;;26.39;80.63
25084;BME280;13075;55.682;37.564;2022-07-29T12:45:05;99581.34;;;26.44;78.77
25084;BME280;13075;55.682;37.564;2022-07-29T12:47:32;99591.41;;;26.62;75.89
25084;BME280;13075;55.682;37.564;2022-07-29T12:50:09;99572.53;;;26.88;72.10
25084;BME280;13075;55.682;37.564;2022-07-29T12:52:35;99574.97;;;26.76;72.51
25084;BME280;13075;55.682;37.564;2022-07-29T12:55:01;99578.81;;;26.75;76.21
25084;BME280;13075;55.682;37.564;2022-07-29T12:57:28;99575.75;;;26.49;77.50
25084;BME280;13075;55.682;37.564;2022-07-29T13:00:09;99576.44;;;26.27;82.12
25084;BME280;13075;55.682;37.564;2022-07-29T13:02:37;99572.84;;;26.13;82.12
25084;BME280;13075;55.682;37.564;2022-07-29T13:05:04;99581.09;;;26.13;81.16
25084;BME280;13075;55.682;37.564;2022-07-29T13:07:32;99583.34;;;26.25;83.03
25084;BME280;13075;55.682;37.564;2022-07-29T13:10:20;99573.19;;;26.25;85.82
25084;BME280;13075;55.682;37.564;2022-07-29T13:13:06;99581.03;;;26.32;80.64
25084;BME280;13075;55.682;37.564;2022-07-29T13:15:33;99586.50;;;26.32;80.17
25084;BME280;13075;55.682;37.564;2022-07-29T13:17:59;99572.88;;;26.40;77.20
25084;BME280;13075;55.682;37.564;2022-07-29T13:20:27;99580.03;;;26.55;79.52
25084;BME280;13075;55.682;37.564;2022-07-29T13:22:56;99579.28;;;26.36;79.76
25084;BME280;13075;55.682;37.564;2022-07-29T13:25:29;99573.59;;;26.00;89.69
25084;BME280;13075;55.682;37.564;2022-07-29T13:27:57;99582.94;;;25.99;92.59
25084;BME280;13075;55.682;37.564;2022-07-29T13:30:24;99578.38;;;25.76;94.63
25084;BME280;13075;55.682;37.564;2022-07-29T13:32:51;99576.91;;;25.83;94.37
25084;BME280;13075;55.682;37.564;2022-07-29T13:35:18;99578.91;;;25.78;96.07
25084;BME280;13075;55.682;37.564;2022-07-29T13:37:44;99563.78;;;25.80;93.43